Time;durP1;ratioP1;P1;durP2;ratioP2;P2;SDS_P1;SDS_P2;PMS_P1;PMS_P2;Temp;Humidity;BMP_temperature;BMP_pressure;BME280_temperature;BME280_humidity;BME280_pressure;Samples;Min_cycle;Max_cycle;Signal;HPM_P1;HPM_P2
2022/01/27 00:00:48;;;;;;;45.95;21.35;;;;;;;3.34;100.00;102607.63;5115504;28;20046;-56
2022/01/27 00:03:23;;;;;;;43.80;22.77;;;;;;;3.33;100.00;102616.31;5115429;28;20082;-44
2022/01/27 00:05:54;;;;;;;40.72;21.17;;;;;;;3.35;100.00;102614.56;5115555;28;20561;-46
2022/01/27 00:08:28;;;;;;;45.05;20.70;;;;;;;3.35;100.00;102607.66;5115571;28;20057;-47
2022/01/27 00:10:59;;;;;;;42.08;19.88;;;;;;;3.37;100.00;102608.47;5115230;28;20083;-59
2022/01/27 00:13:31;;;;;;;48.72;22.05;;;;;;;3.41;100.00;102622.34;5115485;28;20047;-50
2022/01/27 00:16:12;;;;;;;38.85;19.70;;;;;;;3.38;100.00;102618.03;5115112;28;20127;-50
2022/01/27 00:18:42;;;;;;;40.35;19.85;;;;;;;3.37;100.00;102620.63;5114060;28;20044;-57
2022/01/27 00:21:10;;;;;;;39.15;19.55;;;;;;;3.45;100.00;102607.56;5115343;28;20049;-51
2022/01/27 00:23:41;;;;;;;38.85;20.17;;;;;;;3.40;100.00;102606.75;5115224;28;20569;-46
2022/01/27 00:26:11;;;;;;;36.78;18.33;;;;;;;3.42;100.00;102591.97;5115298;28;20051;-57
2022/01/27 00:28:40;;;;;;;33.17;17.25;;;;;;;3.43;100.00;102584.16;5114914;28;20055;-48
2022/01/27 00:31:08;;;;;;;35.95;17.45;;;;;;;3.44;100.00;102585.88;5115010;28;20044;-46
2022/01/27 00:33:41;;;;;;;35.03;18.48;;;;;;;3.44;100.00;102578.09;5114988;28;20394;-48
2022/01/27 00:36:09;;;;;;;32.45;17.02;;;;;;;3.45;100.00;102584.13;5114987;28;20299;-50
2022/01/27 00:38:37;;;;;;;35.65;18.27;;;;;;;3.45;100.00;102579.81;5114570;28;20058;-57
2022/01/27 00:41:07;;;;;;;38.60;18.17;;;;;;;3.43;100.00;102573.75;5114599;28;20128;-57
2022/01/27 00:43:35;;;;;;;36.17;17.75;;;;;;;3.47;100.00;102551.19;5114708;28;20502;-55
2022/01/27 00:46:09;;;;;;;41.78;17.73;;;;;;;3.51;100.00;102553.75;5114628;28;20043;-47
2022/01/27 00:48:38;;;;;;;36.88;18.30;;;;;;;3.47;100.00;102541.63;5114765;28;20047;-44
2022/01/27 00:51:08;;;;;;;35.63;18.40;;;;;;;3.42;100.00;102540.81;5114636;28;20048;-50
2022/01/27 00:53:43;;;;;;;35.95;16.58;;;;;;;3.46;100.00;102557.25;5114417;28;20043;-46
2022/01/27 00:56:21;;;;;;;32.40;16.60;;;;;;;3.46;100.00;102559.84;5114960;28;20052;-55
2022/01/27 00:58:58;;;;;;;33.00;17.58;;;;;;;3.44;100.00;102564.22;5114545;28;20386;-47
2022/01/27 01:01:32;;;;;;;31.60;16.95;;;;;;;3.47;100.00;102572.84;5113017;28;20154;-57
2022/01/27 01:04:03;;;;;;;37.13;17.17;;;;;;;3.43;100.00;102565.94;5114210;28;20537;-57
2022/01/27 01:06:40;;;;;;;38.08;18.02;;;;;;;3.45;100.00;102568.53;5114384;28;20546;-58
2022/01/27 01:14:48;;;;;;;34.10;18.55;;;;;;;3.47;100.00;102536.44;5112203;28;20116;-48
2022/01/27 01:17:33;;;;;;;34.83;18.35;;;;;;;3.47;100.00;102540.78;5114166;28;20058;-48
2022/01/27 01:31:15;;;;;;;34.85;18.02;;;;;;;3.44;100.00;102544.28;5113829;28;20043;-52
2022/01/27 01:33:45;;;;;;;37.10;18.60;;;;;;;3.47;100.00;102522.56;5113861;28;20051;-58
2022/01/27 01:36:16;;;;;;;40.30;18.17;;;;;;;3.43;100.00;102531.28;5113621;28;20489;-45
2022/01/27 01:38:45;;;;;;;38.13;18.92;;;;;;;3.43;100.00;102533.88;5113639;28;20743;-48
2022/01/27 01:41:13;;;;;;;35.95;18.10;;;;;;;3.44;100.00;102525.22;5113454;28;20101;-45
2022/01/27 01:43:42;;;;;;;34.25;18.25;;;;;;;3.44;100.00;102502.66;5113315;28;20482;-57
2022/01/27 01:46:11;;;;;;;33.38;19.38;;;;;;;3.40;100.00;102508.75;5113756;28;20658;-58
2022/01/27 01:48:39;;;;;;;33.72;16.63;;;;;;;3.42;100.00;102516.53;5113151;28;20130;-50
2022/01/27 01:51:07;;;;;;;36.90;18.02;;;;;;;3.50;100.00;102502.56;5113386;28;20073;-57
2022/01/27 01:53:35;;;;;;;34.78;17.70;;;;;;;3.45;100.00;102517.38;5113544;28;20542;-47
2022/01/27 01:56:05;;;;;;;33.72;17.42;;;;;;;3.42;100.00;102509.59;5113321;28;20517;-49
2022/01/27 01:58:33;;;;;;;35.75;18.02;;;;;;;3.46;100.00;102507.84;5113384;28;20065;-56
2022/01/27 02:01:03;;;;;;;39.60;18.17;;;;;;;3.44;100.00;102507.84;5113658;28;20693;-56
2022/01/27 02:03:31;;;;;;;37.25;18.17;;;;;;;3.42;100.00;102516.53;5113385;28;20399;-48
2022/01/27 02:05:59;;;;;;;34.33;17.40;;;;;;;3.44;100.00;102531.25;5113156;28;20052;-47
2022/01/27 02:08:37;;;;;;;40.90;18.13;;;;;;;3.44;100.00;102520.00;5113255;28;20421;-57
2022/01/27 02:19:28;;;;;;;35.65;17.23;;;;;;;3.48;100.00;102478.34;5112779;28;20428;-49
2022/01/27 02:22:00;;;;;;;35.13;17.83;;;;;;;3.50;100.00;102468.75;5113214;28;20047;-57
2022/01/27 02:24:32;;;;;;;33.08;16.90;;;;;;;3.49;100.00;102477.47;5111393;28;20047;-56
2022/01/27 02:27:01;;;;;;;33.25;17.33;;;;;;;3.47;100.00;102500.00;5112925;28;20056;-46
2022/01/27 02:29:29;;;;;;;32.65;17.52;;;;;;;3.54;100.00;102496.50;5112592;28;20405;-51
2022/01/27 02:31:59;;;;;;;37.25;17.42;;;;;;;3.57;100.00;102460.91;5112818;28;20048;-46
2022/01/27 02:34:28;;;;;;;33.97;16.70;;;;;;;3.48;100.00;102467.06;5113356;28;20048;-56
2022/01/27 02:36:57;;;;;;;34.50;16.92;;;;;;;3.44;100.00;102458.44;5112701;28;20432;-56
2022/01/27 02:39:26;;;;;;;36.30;17.42;;;;;;;3.50;100.00;102458.34;5112394;28;20052;-57
2022/01/27 02:42:01;;;;;;;38.25;18.10;;;;;;;3.49;100.00;102451.44;5112668;28;20036;-56
2022/01/27 02:44:34;;;;;;;33.45;17.75;;;;;;;3.54;100.00;102444.47;5112686;28;20039;-47
2022/01/27 02:47:03;;;;;;;35.00;18.25;;;;;;;3.52;100.00;102446.22;5112979;28;20138;-47
2022/01/27 02:49:31;;;;;;;36.42;17.38;;;;;;;3.53;100.00;102445.34;5112608;28;20047;-57
2022/01/27 02:52:01;;;;;;;33.92;17.20;;;;;;;3.50;100.00;102442.75;5111180;28;20052;-56
2022/01/27 02:54:29;;;;;;;35.80;17.40;;;;;;;3.51;100.00;102431.47;5112516;28;20050;-56
2022/01/27 02:57:18;;;;;;;33.78;16.48;;;;;;;3.60;100.00;102438.34;5112519;28;20047;-56
2022/01/27 02:59:47;;;;;;;31.55;17.67;;;;;;;3.58;100.00;102434.88;5111056;28;20052;-58
2022/01/27 03:02:15;;;;;;;32.25;16.58;;;;;;;3.61;100.00;102441.78;5115063;28;20043;-55
2022/01/27 03:04:44;;;;;;;35.55;16.88;;;;;;;3.65;100.00;102433.91;5116508;28;20428;-58
2022/01/27 03:07:14;;;;;;;35.38;17.00;;;;;;;3.61;100.00;102440.03;5116659;28;20443;-58
2022/01/27 03:09:43;;;;;;;34.45;17.10;;;;;;;3.62;100.00;102446.97;5115072;28;20051;-56
2022/01/27 03:12:12;;;;;;;31.67;16.75;;;;;;;3.57;100.00;102455.69;5116520;28;20606;-49
2022/01/27 03:14:42;;;;;;;32.17;16.65;;;;;;;3.66;100.00;102447.81;5116366;28;20398;-57
2022/01/27 03:17:12;;;;;;;31.67;15.93;;;;;;;3.62;100.00;102422.69;5116274;28;20094;-46
2022/01/27 03:19:40;;;;;;;37.55;17.83;;;;;;;3.58;100.00;102415.81;5116288;28;20512;-45
2022/01/27 03:22:10;;;;;;;33.03;16.25;;;;;;;3.58;100.00;102401.03;5116235;28;20083;-44
2022/01/27 03:24:39;;;;;;;34.42;17.15;;;;;;;3.60;100.00;102393.22;5116248;28;20187;-57
2022/01/27 03:27:15;;;;;;;31.75;16.58;;;;;;;3.59;100.00;102409.72;5114182;28;20554;-57
2022/01/27 03:29:43;;;;;;;37.17;17.42;;;;;;;3.65;100.00;102404.44;5112916;28;20047;-56
2022/01/27 03:32:11;;;;;;;33.25;17.42;;;;;;;3.62;100.00;102391.47;5115355;28;20093;-46
2022/01/27 03:34:39;;;;;;;37.47;17.42;;;;;;;3.64;100.00;102390.59;5115755;28;20509;-56
2022/01/27 03:37:07;;;;;;;33.80;16.45;;;;;;;3.61;100.00;102371.53;5115934;28;20040;-56
2022/01/27 03:39:38;;;;;;;32.10;15.35;;;;;;;3.66;100.00;102362.78;5113743;28;20097;-56
2022/01/27 03:42:09;;;;;;;32.15;17.52;;;;;;;3.68;100.00;102354.97;5112486;28;20397;-45
2022/01/27 03:44:37;;;;;;;33.13;16.90;;;;;;;3.61;100.00;102351.56;5115142;28;20101;-56
2022/01/27 03:47:06;;;;;;;33.45;17.48;;;;;;;3.68;100.00;102347.16;5115625;28;20040;-57
2022/01/27 03:49:34;;;;;;;30.05;16.63;;;;;;;3.72;100.00;102352.31;5115519;28;20378;-56
2022/01/27 03:52:03;;;;;;;39.00;18.70;;;;;;;3.65;100.00;102350.66;5112911;28;20120;-55
2022/01/27 03:54:31;;;;;;;32.75;17.25;;;;;;;3.67;100.00;102353.25;5110525;28;20043;-46
2022/01/27 03:57:00;;;;;;;33.92;17.75;;;;;;;3.63;100.00;102342.03;5114914;28;20055;-57
2022/01/27 03:59:30;;;;;;;32.45;17.30;;;;;;;3.64;100.00;102351.56;5115399;28;20048;-46
2022/01/27 04:01:58;;;;;;;33.78;17.35;;;;;;;3.64;100.00;102358.47;5115603;28;20048;-57
2022/01/27 04:04:27;;;;;;;39.47;17.40;;;;;;;3.73;100.00;102348.81;5115430;28;20043;-55
2022/01/27 04:06:57;;;;;;;33.30;16.98;;;;;;;3.69;100.00;102354.09;5115438;27;20043;-57
2022/01/27 04:09:27;;;;;;;32.92;16.77;;;;;;;3.65;100.00;102347.19;5115330;28;20058;-57
2022/01/27 04:11:55;;;;;;;35.08;17.27;;;;;;;3.71;100.00;102349.75;5113635;28;20103;-48
2022/01/27 04:14:23;;;;;;;32.10;16.40;;;;;;;3.70;100.00;102346.25;5115309;28;20040;-57
2022/01/27 04:16:52;;;;;;;31.60;16.48;;;;;;;3.72;100.00;102359.25;5113540;28;20528;-47
2022/01/27 04:19:21;;;;;;;32.80;16.27;;;;;;;3.71;100.00;102339.34;5111591;28;20093;-56
2022/01/27 04:21:51;;;;;;;33.95;17.52;;;;;;;3.75;100.00;102338.41;5114200;28;20074;-56
2022/01/27 04:24:19;;;;;;;31.48;16.35;;;;;;;3.78;100.00;102334.91;5114911;28;20051;-47
2022/01/27 04:26:52;;;;;;;32.45;16.77;;;;;;;3.73;100.00;102343.59;5114767;28;20043;-56
2022/01/27 04:29:22;;;;;;;31.98;16.23;;;;;;;3.77;100.00;102335.78;5115053;28;20386;-56
2022/01/27 04:31:51;;;;;;;34.03;16.13;;;;;;;3.77;100.00;102335.78;5114730;28;20051;-57
2022/01/27 04:34:21;;;;;;;28.55;15.23;;;;;;;3.79;100.00;102327.09;5112092;28;20569;-55
2022/01/27 04:36:49;;;;;;;32.90;15.48;;;;;;;3.80;100.00;102323.56;5110941;28;20043;-56
2022/01/27 04:39:23;;;;;;;32.70;15.65;;;;;;;3.82;100.00;102316.63;5114697;28;20047;-56
2022/01/27 04:41:56;;;;;;;31.98;15.25;;;;;;;3.75;100.00;102301.09;5114520;28;20056;-55
2022/01/27 04:44:31;;;;;;;32.22;16.73;;;;;;;3.78;100.00;102301.09;5114564;28;20082;-53
2022/01/27 04:47:04;;;;;;;34.53;16.63;;;;;;;3.81;100.00;102301.88;5114842;28;20059;-56
2022/01/27 04:49:34;;;;;;;33.95;15.55;;;;;;;3.77;100.00;102296.75;5111064;28;20117;-56
2022/01/27 04:52:02;;;;;;;31.10;15.15;;;;;;;3.79;100.00;102295.84;5111755;28;20035;-56
2022/01/27 04:54:36;;;;;;;33.38;15.65;;;;;;;3.78;100.00;102286.31;5112911;28;20050;-55
2022/01/27 04:57:05;;;;;;;30.17;14.75;;;;;;;3.81;100.00;102285.41;5111032;28;20472;-55
2022/01/27 04:59:39;;;;;;;29.98;15.35;;;;;;;3.80;100.00;102284.53;5113692;28;20093;-55
2022/01/27 05:02:08;;;;;;;29.35;14.65;;;;;;;3.83;100.00;102289.72;5113939;28;20060;-55
2022/01/27 05:04:42;;;;;;;31.23;15.32;;;;;;;3.84;100.00;102299.22;5110275;28;20044;-56
2022/01/27 05:07:11;;;;;;;29.15;14.40;;;;;;;3.83;100.00;102278.44;5112171;28;20048;-56
2022/01/27 05:09:48;;;;;;;33.63;15.20;;;;;;;3.88;100.00;102266.22;5114383;28;20054;-56
2022/01/27 05:12:27;;;;;;;31.80;15.18;;;;;;;3.84;100.00;102257.59;5114364;28;20046;-54
2022/01/27 05:14:58;;;;;;;31.45;15.50;;;;;;;3.85;100.00;102250.66;5112869;28;20498;-54
2022/01/27 05:17:26;;;;;;;30.08;14.70;;;;;;;3.89;100.00;102245.38;5110382;28;20045;-55
2022/01/27 05:19:56;;;;;;;31.55;15.90;;;;;;;3.93;100.00;102247.91;5112498;28;20052;-56
2022/01/27 05:22:24;;;;;;;34.72;15.68;;;;;;;3.86;100.00;102255.84;5110037;28;20138;-55
2022/01/27 05:24:52;;;;;;;33.38;15.35;;;;;;;3.90;100.00;102246.25;5107592;28;20089;-53
2022/01/27 05:27:20;;;;;;;28.08;14.85;;;;;;;3.88;100.00;102254.06;5114189;28;20100;-56
2022/01/27 05:29:49;;;;;;;31.60;14.75;;;;;;;3.91;100.00;102257.50;5113712;28;20043;-57
2022/01/27 05:32:17;;;;;;;27.75;13.98;;;;;;;3.93;100.00;102261.81;5113979;28;20055;-57
2022/01/27 05:34:45;;;;;;;27.70;13.35;;;;;;;3.97;100.00;102252.22;5113709;28;20044;-54
2022/01/27 05:37:14;;;;;;;27.75;14.65;;;;;;;3.99;100.00;102255.66;5113687;28;20044;-57
2022/01/27 05:39:43;;;;;;;34.15;14.18;;;;;;;3.97;100.00;102247.88;5113332;28;20043;-56
2022/01/27 05:42:11;;;;;;;31.65;13.50;;;;;;;3.96;100.00;102247.91;5113809;28;20223;-57
2022/01/27 05:44:39;;;;;;;33.78;14.57;;;;;;;4.00;100.00;102241.75;5113454;28;20044;-56
2022/01/27 05:47:07;;;;;;;28.80;13.27;;;;;;;4.07;100.00;102232.97;5111384;28;20513;-57
2022/01/27 05:49:35;;;;;;;28.17;14.30;;;;;;;4.12;100.00;102231.16;5109405;28;20047;-58
2022/01/27 05:52:04;;;;;;;28.23;14.10;;;;;;;4.06;100.00;102234.72;5113069;28;20043;-58
2022/01/27 05:54:34;;;;;;;27.23;13.90;;;;;;;4.06;100.00;102233.84;5113497;28;20070;-46
2022/01/27 05:57:02;;;;;;;33.13;13.48;;;;;;;4.11;100.00;102237.22;5113337;28;20044;-49
2022/01/27 05:59:30;;;;;;;26.25;13.30;;;;;;;4.02;100.00;102225.22;5111941;28;20050;-44
2022/01/27 06:01:58;;;;;;;31.27;14.30;;;;;;;4.02;100.00;102239.97;5113168;28;20043;-46
2022/01/27 06:04:27;;;;;;;28.42;14.55;;;;;;;3.98;100.00;102231.38;5112240;28;20405;-56
2022/01/27 06:06:55;;;;;;;30.98;15.18;;;;;;;3.99;100.00;102219.19;5109429;28;20040;-47
2022/01/27 06:09:23;;;;;;;33.47;15.32;;;;;;;4.00;100.00;102226.97;5108983;28;20112;-46
2022/01/27 06:11:53;;;;;;;28.48;14.35;;;;;;;4.04;100.00;102220.00;5111795;28;20134;-49
2022/01/27 06:14:21;;;;;;;32.38;15.13;;;;;;;3.94;100.00;102218.41;5112918;28;20039;-47
2022/01/27 06:16:49;;;;;;;31.77;14.65;;;;;;;3.95;100.00;102218.38;5113068;28;20073;-46
2022/01/27 06:19:18;;;;;;;35.45;15.07;;;;;;;3.97;100.00;102221.00;5112933;28;20078;-57
2022/01/27 06:21:46;;;;;;;31.63;13.85;;;;;;;3.94;100.00;102208.00;5112909;28;20510;-55
2022/01/27 06:24:14;;;;;;;27.45;13.18;;;;;;;3.99;100.00;102207.03;5112819;28;20475;-55
2022/01/27 06:26:42;;;;;;;32.40;15.10;;;;;;;3.95;100.00;102199.31;5112645;28;20084;-44
2022/01/27 06:29:11;;;;;;;29.58;14.27;;;;;;;3.95;100.00;102199.31;5109894;28;20051;-57
2022/01/27 06:31:40;;;;;;;29.02;13.85;;;;;;;3.95;100.00;102196.72;5109414;28;20055;-44
2022/01/27 06:34:08;;;;;;;33.65;14.88;;;;;;;3.96;100.00;102194.06;5112633;28;20051;-57
2022/01/27 06:36:36;;;;;;;31.67;14.38;;;;;;;4.01;100.00;102188.81;5112279;28;20043;-56
2022/01/27 06:39:05;;;;;;;28.98;14.05;;;;;;;4.05;100.00;102180.06;5112532;28;20067;-55
2022/01/27 06:41:33;;;;;;;27.92;12.98;;;;;;;4.04;100.00;102175.75;5112514;28;20100;-56
2022/01/27 06:44:02;;;;;;;28.35;13.48;;;;;;;4.06;100.00;102180.03;5110861;28;20075;-54
2022/01/27 06:46:32;;;;;;;34.00;14.93;;;;;;;4.00;100.00;102172.31;5108725;28;20092;-47
2022/01/27 06:49:03;;;;;;;32.42;14.98;;;;;;;4.03;100.00;102168.81;5110253;28;20093;-55
2022/01/27 06:51:32;;;;;;;36.22;14.68;;;;;;;4.02;100.00;102174.88;5112449;28;20097;-58
2022/01/27 06:54:00;;;;;;;28.10;14.20;;;;;;;4.00;100.00;102177.53;5112298;28;20477;-57
2022/01/27 06:56:29;;;;;;;32.78;15.55;;;;;;;4.03;100.00;102176.63;5111843;28;20065;-46
2022/01/27 06:58:57;;;;;;;34.10;14.20;;;;;;;4.07;100.00;102168.72;5107619;28;20047;-48
2022/01/27 07:01:25;;;;;;;34.72;14.07;;;;;;;4.12;100.00;102171.25;5110044;28;20513;-58
2022/01/27 07:03:55;;;;;;;32.08;14.45;;;;;;;4.15;100.00;102179.00;5112279;28;20047;-57
2022/01/27 07:06:23;;;;;;;30.63;14.23;;;;;;;4.16;100.00;102175.53;5112299;28;20127;-57
2022/01/27 07:08:51;;;;;;;29.40;14.05;;;;;;;4.17;100.00;102176.38;5112346;28;20432;-56
2022/01/27 07:11:19;;;;;;;32.97;14.18;;;;;;;4.17;100.00;102178.97;5111678;28;20043;-58
2022/01/27 07:13:47;;;;;;;30.63;15.32;;;;;;;4.25;100.00;102173.66;5108656;28;20047;-58
2022/01/27 07:16:16;;;;;;;32.42;14.98;;;;;;;4.24;100.00;102183.22;5110088;28;20070;-57
2022/01/27 07:18:44;;;;;;;31.90;14.55;;;;;;;4.27;100.00;102184.88;5110739;28;20071;-57
2022/01/27 07:21:13;;;;;;;31.00;15.05;;;;;;;4.26;100.00;102188.41;5110839;28;20058;-47
2022/01/27 07:23:42;;;;;;;33.95;14.65;;;;;;;4.29;100.00;102186.59;5112260;28;20391;-56
2022/01/27 07:26:10;;;;;;;35.22;14.85;;;;;;;4.30;100.00;102187.47;5112133;28;20040;-47
2022/01/27 07:28:38;;;;;;;32.47;14.45;;;;;;;4.33;100.00;102187.41;5111671;28;20071;-51
2022/01/27 07:31:06;;;;;;;30.63;14.13;;;;;;;4.38;100.00;102198.59;5112281;28;20035;-52
2022/01/27 07:33:34;;;;;;;34.28;14.40;;;;;;;4.40;100.00;102202.91;5112045;28;20100;-51
2022/01/27 07:36:02;;;;;;;27.67;13.45;;;;;;;4.36;100.00;102203.84;5108542;28;20363;-54
2022/01/27 07:38:32;;;;;;;28.23;14.20;;;;;;;4.41;100.00;102201.16;5107254;28;20044;-54
2022/01/27 07:41:00;;;;;;;28.92;13.73;;;;;;;4.45;100.00;102199.34;5109950;28;20686;-55
2022/01/27 07:43:28;;;;;;;31.50;13.70;;;;;;;4.45;100.00;102191.53;5107704;28;20143;-53
2022/01/27 07:45:56;;;;;;;32.42;13.63;;;;;;;4.46;100.00;102212.34;5110335;28;20086;-53
2022/01/27 07:48:25;;;;;;;28.80;13.32;;;;;;;4.46;100.00;102201.06;5114328;28;20048;-55
2022/01/27 07:50:53;;;;;;;31.13;13.43;;;;;;;4.49;100.00;102194.06;5115780;28;20051;-55
2022/01/27 07:53:22;;;;;;;27.92;14.20;;;;;;;4.52;100.00;102194.00;5115757;28;20059;-53
2022/01/27 07:55:52;;;;;;;30.88;13.60;;;;;;;4.52;100.00;102194.00;5115501;28;20043;-53
2022/01/27 07:58:21;;;;;;;28.58;14.18;;;;;;;4.52;100.00;102183.56;5115657;28;20036;-55
2022/01/27 08:00:50;;;;;;;33.00;14.48;;;;;;;4.55;100.00;102188.75;5115440;28;20047;-54
2022/01/27 08:03:22;;;;;;;32.00;14.13;;;;;;;4.57;100.00;102191.31;5115552;28;20043;-55
2022/01/27 08:05:53;;;;;;;33.08;14.70;;;;;;;4.64;100.00;102189.47;5115424;28;20162;-54
2022/01/27 08:08:22;;;;;;;37.97;15.00;;;;;;;4.62;100.00;102192.09;5115416;28;20079;-53
2022/01/27 08:10:52;;;;;;;31.23;13.52;;;;;;;4.62;100.00;102183.41;5115360;28;20044;-55
2022/01/27 08:13:23;;;;;;;35.40;14.02;;;;;;;4.65;100.00;102184.22;5115372;28;20041;-55
2022/01/27 08:15:55;;;;;;;34.65;14.60;;;;;;;4.64;100.00;102181.63;5113959;28;20071;-54
2022/01/27 08:18:43;;;;;;;24.83;13.50;;;;;;;4.68;100.00;102180.69;5115265;28;20097;-53
2022/01/27 08:21:11;;;;;;;25.30;12.90;;;;;;;4.72;100.00;102184.97;5115442;28;20051;-57
2022/01/27 08:23:41;;;;;;;28.30;13.50;;;;;;;4.72;100.00;102192.78;5115190;28;20043;-52
2022/01/27 08:26:14;;;;;;;27.65;13.13;;;;;;;4.69;100.00;102188.47;5115018;28;20425;-55
2022/01/27 08:28:46;;;;;;;30.42;13.68;;;;;;;4.74;100.00;102185.78;5114858;28;20036;-54
2022/01/27 08:31:15;;;;;;;27.63;14.20;;;;;;;4.73;100.00;102187.53;5115083;28;20054;-55
2022/01/27 08:33:43;;;;;;;31.23;14.35;;;;;;;4.74;100.00;102183.16;5114885;28;20040;-56
2022/01/27 08:36:11;;;;;;;26.63;12.77;;;;;;;4.77;100.00;102187.47;5115021;28;20040;-55
2022/01/27 08:38:43;;;;;;;29.63;13.57;;;;;;;4.82;100.00;102190.84;5115036;28;20504;-53
2022/01/27 08:41:13;;;;;;;30.15;13.15;;;;;;;4.85;100.00;102183.84;5114800;28;20051;-55
2022/01/27 08:43:41;;;;;;;25.80;12.95;;;;;;;4.84;100.00;102179.50;5114845;28;20098;-52
2022/01/27 08:46:09;;;;;;;32.38;14.20;;;;;;;4.81;100.00;102182.16;5114686;28;20135;-54
2022/01/27 08:48:39;;;;;;;26.25;13.85;;;;;;;4.84;100.00;102174.28;5114604;28;20058;-54
2022/01/27 08:51:10;;;;;;;26.73;13.25;;;;;;;4.85;100.00;102169.91;5114341;28;20063;-54
2022/01/27 08:53:58;;;;;;;26.05;13.02;;;;;;;4.86;100.00;102167.28;5108390;28;20055;-55
2022/01/27 08:56:28;;;;;;;30.08;12.95;;;;;;;4.93;100.00;102164.56;5112514;28;20055;-55
2022/01/27 08:58:57;;;;;;;27.00;12.65;;;;;;;4.97;100.00;102163.59;5113927;28;20070;-55
2022/01/27 09:01:26;;;;;;;30.13;12.75;;;;;;;4.93;100.00;102173.22;5113618;28;20138;-55
2022/01/27 09:03:55;;;;;;;29.58;13.32;;;;;;;4.98;100.00;102171.41;5113704;28;20485;-55
2022/01/27 09:06:24;;;;;;;31.35;13.90;;;;;;;4.93;100.00;102178.44;5113940;27;20551;-54
2022/01/27 09:08:52;;;;;;;31.33;14.95;;;;;;;4.94;100.00;102174.97;5113718;27;20047;-55
2022/01/27 09:11:20;;;;;;;30.58;14.90;;;;;;;4.90;100.00;102171.53;5113968;28;20118;-54
2022/01/27 09:13:56;;;;;;;27.45;13.10;;;;;;;4.89;100.00;102167.25;5109931;28;20088;-54
2022/01/27 09:16:26;;;;;;;30.25;14.23;;;;;;;4.97;100.00;102169.66;5110927;28;20052;-54
2022/01/27 09:19:16;;;;;;;29.42;13.60;;;;;;;5.05;100.00;102159.09;5114076;28;20047;-51
2022/01/27 09:21:46;;;;;;;28.05;12.70;;;;;;;5.01;100.00;102165.25;5114029;28;20067;-53
2022/01/27 09:24:17;;;;;;;28.20;13.57;;;;;;;5.05;100.00;102165.16;5113968;28;20395;-54
2022/01/27 09:26:53;;;;;;;25.38;11.98;;;;;;;5.05;100.00;102174.75;5113670;28;20039;-54
2022/01/27 09:29:23;;;;;;;25.85;13.13;;;;;;;5.08;100.00;102172.06;5113934;28;20062;-52
2022/01/27 09:31:52;;;;;;;27.00;12.85;;;;;;;5.05;100.00;102159.09;5113737;28;20443;-54
2022/01/27 09:34:20;;;;;;;27.27;12.60;;;;;;;5.08;100.00;102162.50;5113724;28;20469;-54
2022/01/27 09:36:49;;;;;;;28.70;13.20;;;;;;;5.13;100.00;102167.63;5113590;28;20498;-54
2022/01/27 09:39:19;;;;;;;24.15;12.70;;;;;;;5.07;100.00;102170.34;5113619;28;20052;-54
2022/01/27 09:41:50;;;;;;;25.65;12.73;;;;;;;5.16;100.00;102172.75;5113142;28;20055;-53
2022/01/27 09:44:20;;;;;;;24.05;11.50;;;;;;;5.17;100.00;102171.03;5113602;28;20040;-54
2022/01/27 09:46:49;;;;;;;26.00;12.57;;;;;;;5.15;100.00;102165.81;5113328;28;20054;-54
2022/01/27 09:49:29;;;;;;;22.35;11.30;;;;;;;5.18;100.00;102171.00;5113272;28;20371;-54
2022/01/27 09:51:57;;;;;;;20.95;11.07;;;;;;;5.17;100.00;102171.88;5113630;28;20058;-54
2022/01/27 09:54:35;;;;;;;24.23;11.20;;;;;;;5.27;100.00;102180.34;5113247;28;20051;-55
2022/01/27 09:57:06;;;;;;;20.08;11.00;;;;;;;5.30;100.00;102166.38;5113477;28;20051;-52
2022/01/27 09:59:35;;;;;;;22.67;12.07;;;;;;;5.28;100.00;102178.63;5112959;28;20082;-54
2022/01/27 10:02:09;;;;;;;20.17;11.15;;;;;;;5.25;100.00;102184.75;5113218;28;20047;-53
2022/01/27 10:04:48;;;;;;;23.25;11.65;;;;;;;5.27;100.00;102182.97;5113011;28;20055;-54
2022/01/27 10:07:19;;;;;;;22.45;11.27;;;;;;;5.32;100.00;102169.84;5111366;28;20555;-44
2022/01/27 10:09:59;;;;;;;20.63;11.50;;;;;;;5.31;100.00;102174.19;5106807;28;20052;-50
2022/01/27 10:12:36;;;;;;;22.80;11.43;;;;;;;5.34;100.00;102176.72;5112009;28;20055;-44
2022/01/27 10:15:09;;;;;;;22.40;11.80;;;;;;;5.32;100.00;102180.28;5112966;28;20130;-45
2022/01/27 10:18:00;;;;;;;25.10;12.23;;;;;;;5.33;100.00;102168.91;5112862;28;20048;-45
2022/01/27 10:20:32;;;;;;;22.55;11.48;;;;;;;5.32;100.00;102175.06;5112273;28;20043;-47
2022/01/27 10:23:15;;;;;;;19.80;11.30;;;;;;;5.37;100.00;102179.28;5111595;28;20048;-49
2022/01/27 10:25:51;;;;;;;24.02;11.73;;;;;;;5.38;100.00;102183.56;5108945;28;20039;-45
2022/01/27 10:28:34;;;;;;;22.58;12.02;;;;;;;5.44;100.00;102169.56;5110774;28;20043;-46
2022/01/27 10:31:06;;;;;;;20.60;11.57;;;;;;;5.42;100.00;102181.78;5112470;28;20128;-47
2022/01/27 10:33:43;;;;;;;20.92;11.68;;;;;;;5.46;100.00;102177.34;5112497;28;20071;-46
2022/01/27 10:36:21;;;;;;;22.95;12.10;;;;;;;5.48;100.00;102171.22;5112574;28;20494;-50
2022/01/27 10:38:57;;;;;;;22.10;11.55;;;;;;;5.51;100.00;102180.72;5112733;28;20048;-50
2022/01/27 10:41:32;;;;;;;19.75;11.45;;;;;;;5.53;100.00;102174.53;5112589;28;20122;-47
2022/01/27 10:44:12;;;;;;;18.65;10.57;;;;;;;5.54;100.00;102180.66;5112662;28;20098;-46
2022/01/27 10:47:05;;;;;;;18.95;10.27;;;;;;;5.63;100.00;102172.63;5112543;28;20097;-45
2022/01/27 10:49:38;;;;;;;19.60;9.77;;;;;;;5.68;100.00;102182.94;5112430;28;20122;-47
2022/01/27 10:52:12;;;;;;;17.08;9.73;;;;;;;5.62;100.00;102178.72;5108976;28;20058;-52
2022/01/27 10:54:49;;;;;;;18.33;9.88;;;;;;;5.63;100.00;102180.44;5107613;28;20040;-46
2022/01/27 10:57:24;;;;;;;19.00;9.73;;;;;;;5.69;100.00;102172.44;5112815;28;20138;-49
2022/01/27 11:00:07;;;;;;;19.90;10.30;;;;;;;5.71;100.00;102175.03;5109626;28;20040;-48
2022/01/27 11:02:49;;;;;;;18.90;9.85;;;;;;;5.72;100.00;102168.91;5108052;28;20139;-48
2022/01/27 11:05:18;;;;;;;20.58;10.35;;;;;;;5.70;100.00;102168.06;5112716;28;20098;-48
2022/01/27 11:07:52;;;;;;;17.85;9.75;;;;;;;5.77;100.00;102172.28;5112482;28;20425;-45
2022/01/27 11:10:27;;;;;;;17.90;10.18;;;;;;;5.82;100.00;102170.44;5109126;28;20051;-47
2022/01/27 11:12:56;;;;;;;18.00;10.05;;;;;;;5.82;100.00;102167.81;5107373;28;20047;-45
2022/01/27 11:15:25;;;;;;;17.08;10.05;;;;;;;5.89;100.00;102174.59;5110230;28;20079;-47
2022/01/27 11:17:55;;;;;;;19.40;9.70;;;;;;;5.87;100.00;102173.75;5106882;28;20054;-46
2022/01/27 11:20:50;;;;;;;21.40;11.50;;;;;;;5.95;100.00;102157.91;5110902;28;20498;-48
2022/01/27 11:23:47;;;;;;;19.10;10.10;;;;;;;5.96;100.00;102161.38;5109664;28;20146;-46
2022/01/27 11:26:22;;;;;;;20.05;10.23;;;;;;;5.99;100.00;102156.97;5111825;28;20051;-46
2022/01/27 11:28:52;;;;;;;27.00;10.65;;;;;;;6.04;100.00;102156.84;5116109;28;20045;-50
2022/01/27 11:31:37;;;;;;;20.92;11.20;;;;;;;6.08;100.00;102148.91;5116114;28;20112;-48
2022/01/27 11:34:10;;;;;;;22.35;10.95;;;;;;;6.15;100.00;102149.63;5116116;28;20502;-46
2022/01/27 11:36:39;;;;;;;24.83;12.80;;;;;;;6.12;100.00;102146.22;5116154;28;20105;-48
2022/01/27 11:39:12;;;;;;;22.30;12.15;;;;;;;6.09;100.00;102149.75;5116086;28;20053;-48
2022/01/27 11:41:48;;;;;;;29.02;13.45;;;;;;;6.10;100.00;102146.25;5115853;28;20059;-49
2022/01/27 11:44:39;;;;;;;23.55;12.05;;;;;;;6.13;100.00;102142.72;5111930;28;20040;-47
2022/01/27 11:47:21;;;;;;;23.40;12.35;;;;;;;6.20;100.00;102134.69;5108479;28;21087;-48
2022/01/27 11:49:56;;;;;;;26.33;12.60;;;;;;;6.21;100.00;102140.75;5116200;28;20043;-46
2022/01/27 11:52:28;;;;;;;22.25;12.13;;;;;;;6.33;100.00;102132.59;5115905;28;20053;-45